Bayside, California
Current Conditions -  °F | °C
As of 8:53 AM on Wednesday 22 Oct 2014 (Local Time) from KACV Reporting Station
Overcast Overcast  
Wind Chill: 63°   Ceiling: 5500
Heat Index: 63°   Visibility: 10mi
Dew Point: 49°   Wind: 10mph
Humidity: 60%   Direction: 130°SE
Pressure: 29.98"   Gusts: NA
Location:  40.84°N, 124.06°W
Report Text: KACV 221553Z AUTO 13009KT 10SM OVC055 17/09 A2998 RMK AO2 SLP158 T01720094
Loading
Personal Weather Stations






























Interactive Weather Map
Tropical Storm Tracking
New forecast layout! Learn more

10-Day Weather Forecast

Advertisements
Track Severe Weather on mobile